sensor_id;sensor_type;location;lat;lon;timestamp;P1;durP1;ratioP1;P2;durP2;ratioP2
72123;SDS011;63818;37.134;-8.548;2022-10-26T00:01:06;20.1;;;7.4;;
72123;SDS011;63818;37.134;-8.548;2022-10-26T00:05:53;22.2;;;7.3;;
72123;SDS011;63818;37.134;-8.548;2022-10-26T00:10:39;21.5;;;7.3;;
72123;SDS011;63818;37.134;-8.548;2022-10-26T00:15:28;14.9;;;7.0;;
72123;SDS011;63818;37.134;-8.548;2022-10-26T00:20:14;14.3;;;6.4;;
72123;SDS011;63818;37.134;-8.548;2022-10-26T00:25:01;15.1;;;6.1;;
72123;SDS011;63818;37.134;-8.548;2022-10-26T00:29:48;12.7;;;6.0;;
72123;SDS011;63818;37.134;-8.548;2022-10-26T00:34:34;17.0;;;6.5;;
72123;SDS011;63818;37.134;-8.548;2022-10-26T00:39:20;26.0;;;7.1;;
72123;SDS011;63818;37.134;-8.548;2022-10-26T00:44:40;14.3;;;6.9;;
72123;SDS011;63818;37.134;-8.548;2022-10-26T00:49:38;15.6;;;6.8;;
72123;SDS011;63818;37.134;-8.548;2022-10-26T00:54:24;15.5;;;7.2;;
72123;SDS011;63818;37.134;-8.548;2022-10-26T00:59:10;16.3;;;7.6;;
72123;SDS011;63818;37.134;-8.548;2022-10-26T01:03:59;18.0;;;7.9;;
72123;SDS011;63818;37.134;-8.548;2022-10-26T01:08:45;19.8;;;7.6;;
72123;SDS011;63818;37.134;-8.548;2022-10-26T01:13:33;17.8;;;8.3;;
72123;SDS011;63818;37.134;-8.548;2022-10-26T01:18:21;15.0;;;8.7;;
72123;SDS011;63818;37.134;-8.548;2022-10-26T01:23:15;19.3;;;7.6;;
72123;SDS011;63818;37.134;-8.548;2022-10-26T01:28:09;18.1;;;7.5;;
72123;SDS011;63818;37.134;-8.548;2022-10-26T01:33:05;14.7;;;7.7;;
72123;SDS011;63818;37.134;-8.548;2022-10-26T01:37:59;19.0;;;7.6;;
72123;SDS011;63818;37.134;-8.548;2022-10-26T01:42:53;21.4;;;7.2;;
72123;SDS011;63818;37.134;-8.548;2022-10-26T01:47:42;18.9;;;7.2;;
72123;SDS011;63818;37.134;-8.548;2022-10-26T01:52:29;17.2;;;7.2;;
72123;SDS011;63818;37.134;-8.548;2022-10-26T01:57:16;13.8;;;6.2;;
72123;SDS011;63818;37.134;-8.548;2022-10-26T02:02:10;15.2;;;6.0;;
72123;SDS011;63818;37.134;-8.548;2022-10-26T02:07:05;16.8;;;6.0;;
72123;SDS011;63818;37.134;-8.548;2022-10-26T02:12:04;13.4;;;5.8;;
72123;SDS011;63818;37.134;-8.548;2022-10-26T02:16:56;15.7;;;6.7;;
72123;SDS011;63818;37.134;-8.548;2022-10-26T02:21:47;15.7;;;6.8;;
72123;SDS011;63818;37.134;-8.548;2022-10-26T02:26:37;12.5;;;6.5;;
72123;SDS011;63818;37.134;-8.548;2022-10-26T02:31:29;14.7;;;6.8;;
72123;SDS011;63818;37.134;-8.548;2022-10-26T02:36:16;15.3;;;6.5;;
72123;SDS011;63818;37.134;-8.548;2022-10-26T02:41:07;14.4;;;6.2;;
72123;SDS011;63818;37.134;-8.548;2022-10-26T02:45:56;15.2;;;6.2;;
72123;SDS011;63818;37.134;-8.548;2022-10-26T02:50:49;14.4;;;6.3;;
72123;SDS011;63818;37.134;-8.548;2022-10-26T02:55:44;16.8;;;6.4;;
72123;SDS011;63818;37.134;-8.548;2022-10-26T03:00:34;15.8;;;6.1;;
72123;SDS011;63818;37.134;-8.548;2022-10-26T03:05:24;13.3;;;6.1;;
72123;SDS011;63818;37.134;-8.548;2022-10-26T03:10:11;18.2;;;6.9;;
72123;SDS011;63818;37.134;-8.548;2022-10-26T03:14:57;20.1;;;7.3;;
72123;SDS011;63818;37.134;-8.548;2022-10-26T03:19:43;19.1;;;7.7;;
72123;SDS011;63818;37.134;-8.548;2022-10-26T03:24:34;19.0;;;8.3;;
72123;SDS011;63818;37.134;-8.548;2022-10-26T03:29:23;17.2;;;8.6;;
72123;SDS011;63818;37.134;-8.548;2022-10-26T03:34:08;17.8;;;8.5;;
72123;SDS011;63818;37.134;-8.548;2022-10-26T03:38:56;19.5;;;8.0;;
72123;SDS011;63818;37.134;-8.548;2022-10-26T03:43:42;21.6;;;8.3;;
72123;SDS011;63818;37.134;-8.548;2022-10-26T03:48:28;19.9;;;8.3;;
72123;SDS011;63818;37.134;-8.548;2022-10-26T03:53:13;18.7;;;7.9;;
72123;SDS011;63818;37.134;-8.548;2022-10-26T03:57:59;19.1;;;8.0;;
72123;SDS011;63818;37.134;-8.548;2022-10-26T04:02:52;17.9;;;7.3;;
72123;SDS011;63818;37.134;-8.548;2022-10-26T04:07:39;22.4;;;7.2;;
72123;SDS011;63818;37.134;-8.548;2022-10-26T04:12:25;20.5;;;7.7;;
72123;SDS011;63818;37.134;-8.548;2022-10-26T04:17:11;12.9;;;7.5;;
72123;SDS011;63818;37.134;-8.548;2022-10-26T04:21:57;12.0;;;7.1;;
72123;SDS011;63818;37.134;-8.548;2022-10-26T04:26:42;12.8;;;6.6;;
72123;SDS011;63818;37.134;-8.548;2022-10-26T04:31:28;14.7;;;6.5;;
72123;SDS011;63818;37.134;-8.548;2022-10-26T04:36:14;16.3;;;6.6;;
72123;SDS011;63818;37.134;-8.548;2022-10-26T04:41:00;14.2;;;6.3;;
72123;SDS011;63818;37.134;-8.548;2022-10-26T04:45:46;16.5;;;6.8;;
72123;SDS011;63818;37.134;-8.548;2022-10-26T04:50:34;19.3;;;6.8;;
72123;SDS011;63818;37.134;-8.548;2022-10-26T04:55:20;16.3;;;6.7;;
72123;SDS011;63818;37.134;-8.548;2022-10-26T05:00:06;15.7;;;7.6;;
72123;SDS011;63818;37.134;-8.548;2022-10-26T05:04:52;16.6;;;7.7;;
72123;SDS011;63818;37.134;-8.548;2022-10-26T05:09:39;19.0;;;7.6;;
72123;SDS011;63818;37.134;-8.548;2022-10-26T05:14:24;24.3;;;8.2;;
72123;SDS011;63818;37.134;-8.548;2022-10-26T05:19:10;24.7;;;9.0;;
72123;SDS011;63818;37.134;-8.548;2022-10-26T05:23:56;23.5;;;10.3;;
72123;SDS011;63818;37.134;-8.548;2022-10-26T05:28:41;22.1;;;11.3;;
72123;SDS011;63818;37.134;-8.548;2022-10-26T05:33:27;23.9;;;12.3;;
72123;SDS011;63818;37.134;-8.548;2022-10-26T05:38:14;25.8;;;12.6;;
72123;SDS011;63818;37.134;-8.548;2022-10-26T05:43:01;25.5;;;12.2;;
72123;SDS011;63818;37.134;-8.548;2022-10-26T05:47:47;28.0;;;12.4;;
72123;SDS011;63818;37.134;-8.548;2022-10-26T05:52:40;27.1;;;12.3;;
72123;SDS011;63818;37.134;-8.548;2022-10-26T05:57:27;22.8;;;11.8;;
72123;SDS011;63818;37.134;-8.548;2022-10-26T06:02:16;20.5;;;11.4;;
72123;SDS011;63818;37.134;-8.548;2022-10-26T06:07:11;18.9;;;11.3;;
72123;SDS011;63818;37.134;-8.548;2022-10-26T06:11:58;18.6;;;11.4;;
72123;SDS011;63818;37.134;-8.548;2022-10-26T06:16:51;25.1;;;12.2;;
72123;SDS011;63818;37.134;-8.548;2022-10-26T06:21:49;26.9;;;12.3;;
72123;SDS011;63818;37.134;-8.548;2022-10-26T06:26:43;22.0;;;11.8;;
72123;SDS011;63818;37.134;-8.548;2022-10-26T06:31:33;22.1;;;12.5;;
72123;SDS011;63818;37.134;-8.548;2022-10-26T06:36:22;26.5;;;12.4;;
72123;SDS011;63818;37.134;-8.548;2022-10-26T06:41:11;27.6;;;12.3;;
72123;SDS011;63818;37.134;-8.548;2022-10-26T06:46:01;24.0;;;13.0;;
72123;SDS011;63818;37.134;-8.548;2022-10-26T06:50:55;22.7;;;12.7;;
72123;SDS011;63818;37.134;-8.548;2022-10-26T06:55:42;22.8;;;11.9;;
72123;SDS011;63818;37.134;-8.548;2022-10-26T07:00:30;24.2;;;11.1;;
72123;SDS011;63818;37.134;-8.548;2022-10-26T07:05:16;21.9;;;9.9;;
72123;SDS011;63818;37.134;-8.548;2022-10-26T07:10:02;18.1;;;8.9;;
72123;SDS011;63818;37.134;-8.548;2022-10-26T07:14:48;19.3;;;8.4;;
72123;SDS011;63818;37.134;-8.548;2022-10-26T07:19:34;22.6;;;9.0;;
72123;SDS011;63818;37.134;-8.548;2022-10-26T07:24:20;22.0;;;8.8;;
72123;SDS011;63818;37.134;-8.548;2022-10-26T07:29:06;21.6;;;8.6;;
72123;SDS011;63818;37.134;-8.548;2022-10-26T07:33:51;21.8;;;9.1;;
72123;SDS011;63818;37.134;-8.548;2022-10-26T07:38:38;20.1;;;8.8;;
72123;SDS011;63818;37.134;-8.548;2022-10-26T07:43:24;23.7;;;8.1;;
72123;SDS011;63818;37.134;-8.548;2022-10-26T07:48:15;13.2;;;8.1;;
72123;SDS011;63818;37.134;-8.548;2022-10-26T07:53:03;16.8;;;8.2;;
72123;SDS011;63818;37.134;-8.548;2022-10-26T07:57:51;20.8;;;7.9;;
72123;SDS011;63818;37.134;-8.548;2022-10-26T08:02:41;21.1;;;13.8;;
72123;SDS011;63818;37.134;-8.548;2022-10-26T08:07:27;33.5;;;14.2;;
72123;SDS011;63818;37.134;-8.548;2022-10-26T08:12:19;25.6;;;8.8;;
72123;SDS011;63818;37.134;-8.548;2022-10-26T08:17:05;28.4;;;8.9;;
72123;SDS011;63818;37.134;-8.548;2022-10-26T08:21:52;16.7;;;8.4;;
72123;SDS011;63818;37.134;-8.548;2022-10-26T08:26:38;18.0;;;7.6;;
72123;SDS011;63818;37.134;-8.548;2022-10-26T08:31:24;19.9;;;7.4;;
72123;SDS011;63818;37.134;-8.548;2022-10-26T08:36:10;16.2;;;7.2;;
72123;SDS011;63818;37.134;-8.548;2022-10-26T08:40:56;14.6;;;7.0;;
72123;SDS011;63818;37.134;-8.548;2022-10-26T08:45:47;17.3;;;6.8;;
72123;SDS011;63818;37.134;-8.548;2022-10-26T08:50:38;20.8;;;7.1;;
72123;SDS011;63818;37.134;-8.548;2022-10-26T08:55:30;17.3;;;6.9;;
72123;SDS011;63818;37.134;-8.548;2022-10-26T09:00:22;12.6;;;6.5;;
72123;SDS011;63818;37.134;-8.548;2022-10-26T09:05:14;11.4;;;5.9;;
72123;SDS011;63818;37.134;-8.548;2022-10-26T09:10:03;15.2;;;5.6;;
72123;SDS011;63818;37.134;-8.548;2022-10-26T09:14:59;16.9;;;5.6;;
72123;SDS011;63818;37.134;-8.548;2022-10-26T09:20:05;11.5;;;5.1;;
72123;SDS011;63818;37.134;-8.548;2022-10-26T09:25:07;10.8;;;5.0;;
72123;SDS011;63818;37.134;-8.548;2022-10-26T09:30:10;11.3;;;5.1;;
72123;SDS011;63818;37.134;-8.548;2022-10-26T09:35:03;9.9;;;4.9;;
72123;SDS011;63818;37.134;-8.548;2022-10-26T09:39:51;11.3;;;5.0;;
72123;SDS011;63818;37.134;-8.548;2022-10-26T09:44:43;14.4;;;5.3;;
72123;SDS011;63818;37.134;-8.548;2022-10-26T09:49:36;14.2;;;5.3;;
72123;SDS011;63818;37.134;-8.548;2022-10-26T09:54:28;14.1;;;5.4;;
72123;SDS011;63818;37.134;-8.548;2022-10-26T09:59:14;16.8;;;5.7;;
72123;SDS011;63818;37.134;-8.548;2022-10-26T10:04:15;13.8;;;6.0;;
72123;SDS011;63818;37.134;-8.548;2022-10-26T10:09:06;13.9;;;5.9;;
72123;SDS011;63818;37.134;-8.548;2022-10-26T10:13:55;14.1;;;5.5;;
72123;SDS011;63818;37.134;-8.548;2022-10-26T10:18:54;11.6;;;5.5;;
72123;SDS011;63818;37.134;-8.548;2022-10-26T10:23:48;11.2;;;5.2;;
72123;SDS011;63818;37.134;-8.548;2022-10-26T10:28:34;11.1;;;5.2;;
72123;SDS011;63818;37.134;-8.548;2022-10-26T10:33:20;13.7;;;5.3;;
72123;SDS011;63818;37.134;-8.548;2022-10-26T10:38:10;13.3;;;5.2;;
72123;SDS011;63818;37.134;-8.548;2022-10-26T10:43:11;10.9;;;5.2;;
72123;SDS011;63818;37.134;-8.548;2022-10-26T10:48:00;11.1;;;4.9;;
72123;SDS011;63818;37.134;-8.548;2022-10-26T10:52:48;10.1;;;4.9;;
72123;SDS011;63818;37.134;-8.548;2022-10-26T10:57:38;9.6;;;5.3;;
72123;SDS011;63818;37.134;-8.548;2022-10-26T11:09:47;11.8;;;4.9;;
72123;SDS011;63818;37.134;-8.548;2022-10-26T11:14:39;10.8;;;5.2;;
72123;SDS011;63818;37.134;-8.548;2022-10-26T11:19:29;8.2;;;5.2;;
72123;SDS011;63818;37.134;-8.548;2022-10-26T11:24:21;11.6;;;5.2;;
72123;SDS011;63818;37.134;-8.548;2022-10-26T11:29:15;14.4;;;5.5;;
72123;SDS011;63818;37.134;-8.548;2022-10-26T11:34:15;11.5;;;5.8;;
72123;SDS011;63818;37.134;-8.548;2022-10-26T11:39:08;13.5;;;5.8;;
72123;SDS011;63818;37.134;-8.548;2022-10-26T11:44:01;16.7;;;5.7;;
72123;SDS011;63818;37.134;-8.548;2022-10-26T11:48:55;14.2;;;6.3;;
72123;SDS011;63818;37.134;-8.548;2022-10-26T11:53:45;12.5;;;6.8;;
72123;SDS011;63818;37.134;-8.548;2022-10-26T11:58:33;13.0;;;7.4;;
72123;SDS011;63818;37.134;-8.548;2022-10-26T12:03:24;14.6;;;7.4;;
72123;SDS011;63818;37.134;-8.548;2022-10-26T12:08:15;15.8;;;7.3;;
72123;SDS011;63818;37.134;-8.548;2022-10-26T12:13:13;17.8;;;7.8;;
72123;SDS011;63818;37.134;-8.548;2022-10-26T12:18:02;17.6;;;6.9;;
72123;SDS011;63818;37.134;-8.548;2022-10-26T12:22:56;16.7;;;6.8;;
72123;SDS011;63818;37.134;-8.548;2022-10-26T12:27:53;17.4;;;6.7;;
72123;SDS011;63818;37.134;-8.548;2022-10-26T12:32:50;21.9;;;6.4;;
72123;SDS011;63818;37.134;-8.548;2022-10-26T12:37:37;13.2;;;6.9;;
72123;SDS011;63818;37.134;-8.548;2022-10-26T12:42:29;13.1;;;6.5;;
72123;SDS011;63818;37.134;-8.548;2022-10-26T12:48:01;15.4;;;6.2;;
72123;SDS011;63818;37.134;-8.548;2022-10-26T12:52:50;15.0;;;6.3;;
72123;SDS011;63818;37.134;-8.548;2022-10-26T12:57:40;14.0;;;6.2;;
72123;SDS011;63818;37.134;-8.548;2022-10-26T13:02:41;14.3;;;6.5;;
72123;SDS011;63818;37.134;-8.548;2022-10-26T13:07:36;12.9;;;6.6;;
72123;SDS011;63818;37.134;-8.548;2022-10-26T13:12:23;22.6;;;6.4;;
72123;SDS011;63818;37.134;-8.548;2022-10-26T13:17:20;18.5;;;6.4;;
72123;SDS011;63818;37.134;-8.548;2022-10-26T13:22:18;19.8;;;6.3;;
72123;SDS011;63818;37.134;-8.548;2022-10-26T13:27:26;17.9;;;6.1;;
72123;SDS011;63818;37.134;-8.548;2022-10-26T13:32:27;19.7;;;6.3;;
72123;SDS011;63818;37.134;-8.548;2022-10-26T13:37:17;20.3;;;6.6;;
72123;SDS011;63818;37.134;-8.548;2022-10-26T13:42:10;15.7;;;6.2;;
72123;SDS011;63818;37.134;-8.548;2022-10-26T13:47:01;15.5;;;6.2;;
72123;SDS011;63818;37.134;-8.548;2022-10-26T13:51:51;17.6;;;6.1;;
72123;SDS011;63818;37.134;-8.548;2022-10-26T13:56:39;17.3;;;5.9;;
72123;SDS011;63818;37.134;-8.548;2022-10-26T14:01:30;13.7;;;5.8;;
72123;SDS011;63818;37.134;-8.548;2022-10-26T14:06:18;14.2;;;5.9;;
72123;SDS011;63818;37.134;-8.548;2022-10-26T14:11:07;16.4;;;5.8;;
72123;SDS011;63818;37.134;-8.548;2022-10-26T14:15:59;16.6;;;5.8;;
72123;SDS011;63818;37.134;-8.548;2022-10-26T14:20:48;16.4;;;6.1;;
72123;SDS011;63818;37.134;-8.548;2022-10-26T14:25:39;17.4;;;6.2;;
72123;SDS011;63818;37.134;-8.548;2022-10-26T14:30:26;17.0;;;6.0;;
72123;SDS011;63818;37.134;-8.548;2022-10-26T14:35:14;13.8;;;6.5;;
72123;SDS011;63818;37.134;-8.548;2022-10-26T14:40:01;21.4;;;7.1;;
72123;SDS011;63818;37.134;-8.548;2022-10-26T14:44:48;17.5;;;6.6;;
72123;SDS011;63818;37.134;-8.548;2022-10-26T14:49:35;19.4;;;6.8;;
72123;SDS011;63818;37.134;-8.548;2022-10-26T14:54:22;20.5;;;6.9;;
72123;SDS011;63818;37.134;-8.548;2022-10-26T14:59:17;24.0;;;6.8;;
72123;SDS011;63818;37.134;-8.548;2022-10-26T15:04:20;25.0;;;7.3;;
72123;SDS011;63818;37.134;-8.548;2022-10-26T15:09:30;20.2;;;7.1;;
72123;SDS011;63818;37.134;-8.548;2022-10-26T15:14:22;17.8;;;6.7;;
72123;SDS011;63818;37.134;-8.548;2022-10-26T15:19:08;19.3;;;6.4;;
72123;SDS011;63818;37.134;-8.548;2022-10-26T15:23:56;20.9;;;6.6;;
72123;SDS011;63818;37.134;-8.548;2022-10-26T15:28:43;20.9;;;7.0;;
72123;SDS011;63818;37.134;-8.548;2022-10-26T15:33:30;21.0;;;7.0;;
72123;SDS011;63818;37.134;-8.548;2022-10-26T15:38:20;18.1;;;7.3;;
72123;SDS011;63818;37.134;-8.548;2022-10-26T15:43:08;18.7;;;7.1;;
72123;SDS011;63818;37.134;-8.548;2022-10-26T15:47:58;22.8;;;7.2;;
72123;SDS011;63818;37.134;-8.548;2022-10-26T15:52:49;25.5;;;7.4;;
72123;SDS011;63818;37.134;-8.548;2022-10-26T15:57:41;23.8;;;7.5;;
72123;SDS011;63818;37.134;-8.548;2022-10-26T16:02:29;19.3;;;7.4;;
72123;SDS011;63818;37.134;-8.548;2022-10-26T16:07:15;18.9;;;6.9;;
72123;SDS011;63818;37.134;-8.548;2022-10-26T16:12:01;22.0;;;8.4;;
72123;SDS011;63818;37.134;-8.548;2022-10-26T16:16:47;24.7;;;9.0;;
72123;SDS011;63818;37.134;-8.548;2022-10-26T16:21:33;23.2;;;7.8;;
72123;SDS011;63818;37.134;-8.548;2022-10-26T16:26:19;23.9;;;7.8;;
72123;SDS011;63818;37.134;-8.548;2022-10-26T16:31:06;22.3;;;7.7;;
72123;SDS011;63818;37.134;-8.548;2022-10-26T16:35:58;19.5;;;7.6;;
72123;SDS011;63818;37.134;-8.548;2022-10-26T16:40:44;20.2;;;7.6;;
72123;SDS011;63818;37.134;-8.548;2022-10-26T16:45:30;21.5;;;7.6;;
72123;SDS011;63818;37.134;-8.548;2022-10-26T16:50:16;24.9;;;7.8;;
72123;SDS011;63818;37.134;-8.548;2022-10-26T16:55:03;26.7;;;7.8;;
72123;SDS011;63818;37.134;-8.548;2022-10-26T16:59:50;24.7;;;8.0;;
72123;SDS011;63818;37.134;-8.548;2022-10-26T17:04:36;23.1;;;7.6;;
72123;SDS011;63818;37.134;-8.548;2022-10-26T17:09:22;25.3;;;7.2;;
72123;SDS011;63818;37.134;-8.548;2022-10-26T17:14:07;21.3;;;7.4;;
72123;SDS011;63818;37.134;-8.548;2022-10-26T17:18:53;20.2;;;7.6;;
72123;SDS011;63818;37.134;-8.548;2022-10-26T17:23:40;24.4;;;7.9;;
72123;SDS011;63818;37.134;-8.548;2022-10-26T17:28:26;20.9;;;7.7;;
72123;SDS011;63818;37.134;-8.548;2022-10-26T17:33:12;21.6;;;7.3;;
72123;SDS011;63818;37.134;-8.548;2022-10-26T17:37:58;28.1;;;7.3;;
72123;SDS011;63818;37.134;-8.548;2022-10-26T17:42:44;30.3;;;7.9;;
72123;SDS011;63818;37.134;-8.548;2022-10-26T17:47:30;24.1;;;8.0;;
72123;SDS011;63818;37.134;-8.548;2022-10-26T17:52:17;21.4;;;7.6;;
72123;SDS011;63818;37.134;-8.548;2022-10-26T17:57:03;25.9;;;8.0;;
72123;SDS011;63818;37.134;-8.548;2022-10-26T18:01:49;24.5;;;8.5;;
72123;SDS011;63818;37.134;-8.548;2022-10-26T18:06:39;24.6;;;8.3;;
72123;SDS011;63818;37.134;-8.548;2022-10-26T18:11:25;24.3;;;8.1;;
72123;SDS011;63818;37.134;-8.548;2022-10-26T18:16:17;23.1;;;8.3;;
72123;SDS011;63818;37.134;-8.548;2022-10-26T18:21:09;23.4;;;8.7;;
72123;SDS011;63818;37.134;-8.548;2022-10-26T18:26:02;22.9;;;8.7;;
72123;SDS011;63818;37.134;-8.548;2022-10-26T18:30:50;23.0;;;9.1;;
72123;SDS011;63818;37.134;-8.548;2022-10-26T18:35:37;22.4;;;9.3;;
72123;SDS011;63818;37.134;-8.548;2022-10-26T18:40:25;23.8;;;9.3;;
72123;SDS011;63818;37.134;-8.548;2022-10-26T18:45:14;23.2;;;9.1;;
72123;SDS011;63818;37.134;-8.548;2022-10-26T18:50:00;22.1;;;8.7;;
72123;SDS011;63818;37.134;-8.548;2022-10-26T18:54:49;20.5;;;8.7;;
72123;SDS011;63818;37.134;-8.548;2022-10-26T18:59:37;25.4;;;8.9;;
72123;SDS011;63818;37.134;-8.548;2022-10-26T19:04:23;30.7;;;9.1;;
72123;SDS011;63818;37.134;-8.548;2022-10-26T19:09:09;30.6;;;9.2;;
72123;SDS011;63818;37.134;-8.548;2022-10-26T19:13:56;30.8;;;9.1;;
72123;SDS011;63818;37.134;-8.548;2022-10-26T19:18:44;30.8;;;9.2;;
72123;SDS011;63818;37.134;-8.548;2022-10-26T19:23:37;31.4;;;10.0;;
72123;SDS011;63818;37.134;-8.548;2022-10-26T19:28:24;27.7;;;10.1;;
72123;SDS011;63818;37.134;-8.548;2022-10-26T19:33:17;25.0;;;10.2;;
72123;SDS011;63818;37.134;-8.548;2022-10-26T19:38:03;27.0;;;9.7;;
72123;SDS011;63818;37.134;-8.548;2022-10-26T19:42:49;26.9;;;9.0;;
72123;SDS011;63818;37.134;-8.548;2022-10-26T19:47:35;28.8;;;9.8;;
72123;SDS011;63818;37.134;-8.548;2022-10-26T19:52:23;28.2;;;10.3;;
72123;SDS011;63818;37.134;-8.548;2022-10-26T19:57:12;27.1;;;10.5;;
72123;SDS011;63818;37.134;-8.548;2022-10-26T20:02:00;33.4;;;11.4;;
72123;SDS011;63818;37.134;-8.548;2022-10-26T20:06:47;34.1;;;12.4;;
72123;SDS011;63818;37.134;-8.548;2022-10-26T20:11:35;31.6;;;13.1;;
72123;SDS011;63818;37.134;-8.548;2022-10-26T20:16:26;35.6;;;13.2;;
72123;SDS011;63818;37.134;-8.548;2022-10-26T20:21:12;38.7;;;12.4;;
72123;SDS011;63818;37.134;-8.548;2022-10-26T20:25:58;35.3;;;12.3;;
72123;SDS011;63818;37.134;-8.548;2022-10-26T20:30:46;31.3;;;13.1;;
72123;SDS011;63818;37.134;-8.548;2022-10-26T20:35:42;28.5;;;12.6;;
72123;SDS011;63818;37.134;-8.548;2022-10-26T20:40:28;31.8;;;12.5;;
72123;SDS011;63818;37.134;-8.548;2022-10-26T20:45:20;35.7;;;12.6;;
72123;SDS011;63818;37.134;-8.548;2022-10-26T20:50:10;40.2;;;13.0;;
72123;SDS011;63818;37.134;-8.548;2022-10-26T20:55:00;35.2;;;13.5;;
72123;SDS011;63818;37.134;-8.548;2022-10-26T20:59:51;26.4;;;12.6;;
72123;SDS011;63818;37.134;-8.548;2022-10-26T21:04:47;27.4;;;12.4;;
72123;SDS011;63818;37.134;-8.548;2022-10-26T21:09:36;35.9;;;14.5;;
72123;SDS011;63818;37.134;-8.548;2022-10-26T21:14:22;40.9;;;14.5;;
72123;SDS011;63818;37.134;-8.548;2022-10-26T21:19:08;37.9;;;12.6;;
72123;SDS011;63818;37.134;-8.548;2022-10-26T21:24:00;33.6;;;12.2;;
72123;SDS011;63818;37.134;-8.548;2022-10-26T21:28:49;33.9;;;11.6;;
72123;SDS011;63818;37.134;-8.548;2022-10-26T21:33:36;38.7;;;12.4;;
72123;SDS011;63818;37.134;-8.548;2022-10-26T21:38:22;40.2;;;13.3;;
72123;SDS011;63818;37.134;-8.548;2022-10-26T21:43:08;37.4;;;13.2;;
72123;SDS011;63818;37.134;-8.548;2022-10-26T21:47:55;38.8;;;12.3;;
72123;SDS011;63818;37.134;-8.548;2022-10-26T21:52:44;36.4;;;11.9;;
72123;SDS011;63818;37.134;-8.548;2022-10-26T21:57:30;33.7;;;12.7;;
72123;SDS011;63818;37.134;-8.548;2022-10-26T22:02:19;34.5;;;12.4;;
72123;SDS011;63818;37.134;-8.548;2022-10-26T22:07:05;34.6;;;12.4;;
72123;SDS011;63818;37.134;-8.548;2022-10-26T22:11:56;35.1;;;12.4;;
72123;SDS011;63818;37.134;-8.548;2022-10-26T22:16:42;29.6;;;11.4;;
72123;SDS011;63818;37.134;-8.548;2022-10-26T22:21:31;30.3;;;12.1;;
72123;SDS011;63818;37.134;-8.548;2022-10-26T22:26:19;31.2;;;11.9;;
72123;SDS011;63818;37.134;-8.548;2022-10-26T22:31:07;28.2;;;11.0;;
72123;SDS011;63818;37.134;-8.548;2022-10-26T22:35:56;26.6;;;11.1;;
72123;SDS011;63818;37.134;-8.548;2022-10-26T22:40:56;27.7;;;11.2;;
72123;SDS011;63818;37.134;-8.548;2022-10-26T22:45:45;29.8;;;12.0;;
72123;SDS011;63818;37.134;-8.548;2022-10-26T22:50:32;32.9;;;12.7;;
72123;SDS011;63818;37.134;-8.548;2022-10-26T22:55:22;29.4;;;11.4;;
72123;SDS011;63818;37.134;-8.548;2022-10-26T23:00:09;25.7;;;10.4;;
72123;SDS011;63818;37.134;-8.548;2022-10-26T23:04:58;24.7;;;10.8;;
72123;SDS011;63818;37.134;-8.548;2022-10-26T23:09:44;25.3;;;10.9;;
72123;SDS011;63818;37.134;-8.548;2022-10-26T23:14:31;29.0;;;10.8;;
72123;SDS011;63818;37.134;-8.548;2022-10-26T23:19:17;29.6;;;9.9;;
72123;SDS011;63818;37.134;-8.548;2022-10-26T23:24:03;29.9;;;10.5;;
72123;SDS011;63818;37.134;-8.548;2022-10-26T23:28:49;29.3;;;10.9;;
72123;SDS011;63818;37.134;-8.548;2022-10-26T23:33:36;30.1;;;10.5;;
72123;SDS011;63818;37.134;-8.548;2022-10-26T23:38:22;25.6;;;10.3;;
72123;SDS011;63818;37.134;-8.548;2022-10-26T23:43:08;23.3;;;10.4;;
72123;SDS011;63818;37.134;-8.548;2022-10-26T23:47:56;26.1;;;10.8;;
72123;SDS011;63818;37.134;-8.548;2022-10-26T23:52:43;22.6;;;10.4;;
72123;SDS011;63818;37.134;-8.548;2022-10-26T23:57:31;26.5;;;10.2;;
